Terminal Aerodrome Forecast
Issued by NWS

Home | Current Version | Previous Version | Text Only | Print | Product List | Glossary On
Versions: 1 2 3 4 5 6 7 8 9 10 11 12 13 14
000
FTUS45 KABQ 231700
TAFFMN
TAF
KFMN 231720Z 2318/2418 26015G25KT P6SM FEW150 BKN200
     FM232200 29020G30KT P6SM FEW120 SCT200
     FM240200 30011KT P6SM SKC
     FM240600 33006KT P6SM SKC
     FM241000 06006KT P6SM SKC=

USA.gov is the U.S. government's official web portal to all federal, state and local government web resources and services.